Archival Weather

Chicago O'Hare International

Chicago, Illinois (KORD)

Report from: Friday, July 28, 2023 3:51 PM CDT
Current time: Tuesday, June 18, 2024 7:32 AM CDT

Current weather – Weather history – Daily summaries
Weather forecast

Temperature33.3°C (91.9°F)
Heat index40.2°C (104.4°F)
Dew point24.4°C (75.9°F)
Winds 7 kts (3.6 m/s, 8.1 mph) South-Southwest (210°)
Visibility10 mi. (16.1 km)
Clouds Scattered clouds 3,500 ft. (1,067 m)
Ceiling: Broken clouds 25,000 ft. (7,620 m)
Altimeter29.91 in.Hg (1013 mB)
Relative humidity60 %
Density altitude2,533 ft. (772 m)
Sea-level pressure101.2 kPa (1012 mB, 29.88 in.Hg)
Remarks Automated weather observing station with precipitation discriminator
Pressure falling more slowly
Flight conditions Visual Meteorological Conditions
Raw dataKORD 282051Z 21007KT 10SM SCT035 BKN250 33/24 A2991 RMK AO2 SLP120 T03330244 56011
An error has occurred. This application may no longer respond until reloaded. Reload 🗙